createdAt,value
2019-02-10T00:00:00.610Z,21.23
2019-02-10T00:02:48.114Z,19.80
2019-02-10T00:05:35.597Z,14.53
2019-02-10T00:08:23.160Z,22.30
2019-02-10T00:11:10.895Z,20.07
2019-02-10T00:13:39.272Z,15.93
2019-02-10T00:16:47.553Z,7.30
2019-02-10T00:19:16.274Z,21.20
2019-02-10T00:21:44.644Z,24.30
2019-02-10T00:24:13.026Z,12.97
2019-02-10T00:29:28.842Z,16.13
2019-02-10T00:31:57.216Z,15.23
2019-02-10T00:34:25.605Z,18.83
2019-02-10T00:37:13.234Z,15.43
2019-02-10T00:42:15.563Z,21.60
2019-02-10T00:44:43.942Z,22.50
2019-02-10T00:47:12.310Z,21.83
2019-02-10T00:49:59.936Z,11.97
2019-02-10T00:52:47.566Z,18.20
2019-02-10T00:55:15.944Z,13.90
2019-02-10T00:57:44.321Z,20.43
2019-02-10T01:03:01.788Z,22.10
2019-02-10T01:05:49.277Z,18.17
2019-02-10T01:08:36.770Z,21.63
2019-02-10T01:11:05.142Z,24.90
2019-02-10T01:16:07.436Z,18.30
2019-02-10T01:18:55.022Z,11.90
2019-02-10T01:21:42.640Z,11.73
2019-02-10T01:24:11.023Z,11.87
2019-02-10T01:29:47.524Z,14.07
2019-02-10T01:32:35.142Z,17.90
2019-02-10T01:35:03.526Z,18.27
2019-02-10T01:37:51.008Z,10.83
2019-02-10T01:40:19.388Z,11.47
2019-02-10T01:43:06.872Z,16.43
2019-02-10T01:45:54.437Z,10.77
2019-02-10T01:48:22.809Z,14.73
2019-02-10T01:50:51.204Z,19.90
2019-02-10T01:53:38.822Z,18.37
2019-02-10T01:56:26.314Z,21.10
2019-02-10T01:58:54.684Z,11.03
2019-02-10T02:01:42.387Z,22.93
2019-02-10T02:04:10.768Z,13.03
2019-02-10T02:06:58.281Z,15.53
2019-02-10T02:09:26.628Z,15.23
2019-02-10T02:11:54.993Z,9.90
2019-02-10T02:14:23.367Z,9.73
2019-02-10T02:16:51.750Z,16.57
2019-02-10T02:19:39.242Z,17.20
2019-02-10T02:22:07.609Z,11.33
2019-02-10T02:24:55.243Z,8.83
2019-02-10T02:27:23.612Z,10.00
2019-02-10T02:29:51.992Z,6.57
2019-02-10T02:32:39.615Z,12.47
2019-02-10T02:38:02.294Z,15.40
2019-02-10T02:40:30.673Z,16.43
2019-02-10T02:43:18.162Z,18.47
2019-02-10T02:45:46.546Z,12.73
2019-02-10T02:48:14.954Z,15.33
2019-02-10T02:51:02.552Z,11.43
2019-02-10T02:53:30.921Z,12.20
2019-02-10T02:56:18.664Z,17.97
2019-02-10T03:04:09.209Z,18.67
2019-02-10T03:06:56.705Z,19.17
2019-02-10T03:09:25.078Z,18.13
2019-02-10T03:11:53.454Z,9.60
2019-02-10T03:14:21.818Z,15.80
2019-02-10T03:17:09.316Z,14.20
2019-02-10T03:22:44.470Z,8.47
2019-02-10T03:25:12.841Z,12.03
2019-02-10T03:28:00.340Z,26.27
2019-02-10T03:30:28.739Z,18.57
2019-02-10T03:32:57.107Z,14.27
2019-02-10T03:35:44.825Z,18.83
2019-02-10T03:38:53.107Z,15.97
2019-02-10T03:44:14.568Z,16.90
2019-02-10T03:46:42.945Z,13.63
2019-02-10T03:49:11.321Z,7.60
2019-02-10T03:51:39.709Z,5.03
2019-02-10T03:56:55.514Z,16.10
2019-02-10T03:59:43.129Z,19.23
2019-02-10T04:02:11.520Z,14.60
2019-02-10T04:04:59.004Z,13.33
2019-02-10T04:07:35.640Z,12.43
2019-02-10T04:09:57.468Z,9.53
2019-02-10T04:12:45.092Z,5.33
2019-02-10T04:15:13.463Z,6.60
2019-02-10T04:17:41.842Z,19.57
2019-02-10T04:20:10.209Z,8.73
2019-02-10T04:22:38.592Z,9.37
2019-02-10T04:25:46.864Z,9.53
2019-02-10T04:30:49.509Z,11.77
2019-02-10T04:33:37.005Z,13.33
2019-02-10T04:36:45.313Z,13.30
2019-02-10T04:39:13.687Z,13.50
2019-02-10T04:41:42.066Z,11.90
2019-02-10T04:44:29.560Z,8.60
2019-02-10T04:46:57.962Z,18.03
2019-02-10T04:49:45.668Z,14.83
2019-02-10T04:54:48.158Z,11.93
2019-02-10T04:57:16.544Z,18.07
2019-02-10T04:59:44.905Z,9.37
2019-02-10T05:02:13.286Z,8.60
2019-02-10T05:05:00.783Z,10.47
2019-02-10T05:07:29.163Z,13.67
2019-02-10T05:09:57.519Z,4.93
2019-02-10T05:12:38.359Z,14.00
2019-02-10T05:15:46.659Z,10.23
2019-02-10T05:18:34.154Z,13.23
2019-02-10T05:21:21.642Z,11.43
2019-02-10T05:26:24.040Z,11.70
2019-02-10T05:29:11.670Z,7.60
2019-02-10T05:31:40.043Z,13.13
2019-02-10T05:34:27.598Z,8.00
2019-02-10T05:36:56.022Z,12.00
2019-02-10T05:39:24.426Z,11.87
2019-02-10T05:42:11.910Z,12.10
2019-02-10T05:44:59.532Z,9.53
2019-02-10T05:47:47.152Z,13.90
2019-02-10T05:50:34.796Z,11.13
2019-02-10T05:53:03.150Z,10.30
2019-02-10T05:55:31.528Z,14.47
2019-02-10T06:01:06.482Z,20.80
2019-02-10T06:03:53.991Z,11.73
2019-02-10T06:06:41.638Z,12.77
2019-02-10T06:11:44.556Z,21.07
2019-02-10T06:14:32.073Z,14.37
2019-02-10T06:17:00.443Z,10.50
2019-02-10T06:19:47.942Z,10.20
2019-02-10T06:22:16.324Z,8.90
2019-02-10T06:27:18.608Z,18.70
2019-02-10T06:30:06.106Z,18.63
2019-02-10T06:32:34.483Z,10.00
2019-02-10T06:37:57.560Z,19.93
2019-02-10T06:43:18.908Z,11.50
2019-02-10T06:45:47.288Z,8.10
2019-02-10T06:48:34.918Z,18.83
2019-02-10T06:51:03.301Z,13.17
2019-02-10T06:53:50.947Z,21.23
2019-02-10T06:56:19.332Z,10.83
2019-02-10T07:04:50.300Z,11.57
2019-02-10T07:07:18.689Z,13.10
2019-02-10T07:10:06.338Z,10.47
2019-02-10T07:12:54.064Z,29.87
2019-02-10T07:16:01.032Z,15.73
2019-02-10T07:19:08.007Z,21.63
2019-02-10T07:21:55.667Z,9.30
2019-02-10T07:25:02.647Z,14.83
2019-02-10T07:27:50.298Z,15.33
2019-02-10T07:30:58.633Z,15.97
2019-02-10T07:34:05.602Z,19.67
2019-02-10T07:37:13.888Z,25.63
2019-02-10T07:40:20.859Z,13.83
2019-02-10T07:43:29.153Z,11.93
2019-02-10T07:46:37.496Z,15.50
2019-02-10T07:49:45.851Z,16.87
2019-02-10T07:52:52.824Z,7.03
2019-02-10T07:55:59.795Z,12.43
2019-02-10T07:59:08.087Z,9.20
2019-02-10T08:02:15.310Z,12.00
2019-02-10T08:05:23.611Z,13.30
2019-02-10T08:08:31.933Z,15.80
2019-02-10T08:11:38.897Z,6.53
2019-02-10T08:14:45.856Z,13.60
2019-02-10T08:17:53.631Z,17.37
2019-02-10T08:21:01.877Z,20.43
2019-02-10T08:24:10.161Z,6.23
2019-02-10T08:27:17.121Z,6.83
2019-02-10T08:30:24.079Z,12.80
2019-02-10T08:33:31.039Z,6.23
2019-02-10T08:36:39.326Z,19.27
2019-02-10T08:39:46.373Z,21.27
2019-02-10T08:42:53.333Z,8.50
2019-02-10T08:46:00.290Z,9.30
2019-02-10T08:49:08.640Z,10.40
2019-02-10T08:52:16.926Z,15.43
2019-02-10T08:54:45.291Z,5.27
2019-02-10T08:57:32.788Z,14.57
2019-02-10T09:00:01.151Z,6.40
2019-02-10T09:02:29.548Z,6.57
2019-02-10T09:04:57.916Z,8.93
2019-02-10T09:07:33.464Z,10.90
2019-02-10T09:10:21.083Z,2.97
2019-02-10T09:12:49.456Z,5.57
2019-02-10T09:18:24.453Z,8.73
2019-02-10T09:21:11.937Z,6.80
2019-02-10T09:23:40.320Z,6.73
2019-02-10T09:26:27.795Z,5.90
2019-02-10T09:29:15.290Z,8.70
2019-02-10T09:32:02.911Z,11.53
2019-02-10T09:34:50.406Z,6.37
2019-02-10T09:37:37.894Z,7.00
2019-02-10T09:40:46.199Z,6.50
2019-02-10T09:43:14.580Z,8.70
2019-02-10T09:45:42.953Z,11.40
2019-02-10T09:48:11.331Z,9.10
2019-02-10T09:50:39.701Z,9.30
2019-02-10T09:53:08.312Z,5.23
2019-02-10T09:55:36.698Z,14.43
2019-02-10T09:58:05.073Z,7.30
2019-02-10T10:00:33.445Z,5.20
2019-02-10T10:03:01.817Z,5.43
2019-02-10T10:05:30.193Z,7.17
2019-02-10T10:08:17.676Z,4.67
2019-02-10T10:10:46.061Z,9.73
2019-02-10T10:13:54.341Z,7.73
2019-02-10T10:16:22.727Z,7.80
2019-02-10T10:18:51.096Z,5.90
2019-02-10T10:21:38.733Z,6.10
2019-02-10T10:24:26.227Z,12.67
2019-02-10T10:27:13.713Z,7.60
2019-02-10T10:30:01.335Z,3.83
2019-02-10T10:32:29.707Z,6.77
2019-02-10T10:34:58.087Z,4.17
2019-02-10T10:39:55.134Z,7.50
2019-02-10T10:42:23.503Z,5.13
2019-02-10T10:45:11.235Z,6.90
2019-02-10T10:47:39.609Z,8.10
2019-02-10T10:50:27.327Z,10.43
2019-02-10T10:53:14.946Z,9.27
2019-02-10T10:56:02.579Z,7.97
2019-02-10T10:58:30.954Z,11.50
2019-02-10T11:00:59.355Z,6.43
2019-02-10T11:03:27.722Z,7.33
2019-02-10T11:05:56.102Z,8.00
2019-02-10T11:08:24.470Z,5.30
2019-02-10T11:10:52.844Z,4.83
2019-02-10T11:13:21.217Z,7.23
2019-02-10T11:18:23.464Z,3.07
2019-02-10T11:20:51.843Z,7.70
2019-02-10T11:23:39.548Z,2.73
2019-02-10T11:26:07.934Z,8.63
2019-02-10T11:31:24.041Z,9.87
2019-02-10T11:36:39.844Z,4.43
2019-02-10T11:44:35.592Z,4.60
2019-02-10T11:47:23.218Z,5.40
2019-02-10T11:50:10.700Z,4.53
2019-02-10T11:52:39.078Z,3.97
2019-02-10T11:55:47.370Z,5.43
2019-02-10T11:58:15.737Z,2.93
2019-02-10T12:01:03.362Z,3.00
2019-02-10T12:03:31.729Z,2.83
2019-02-10T12:08:35.822Z,4.23
2019-02-10T12:11:04.553Z,2.93
2019-02-10T12:13:32.929Z,3.97
2019-02-10T12:16:20.548Z,2.63
2019-02-10T12:18:48.918Z,2.70
2019-02-10T12:21:17.289Z,2.60
2019-02-10T12:26:33.094Z,1.90
2019-02-10T12:29:01.466Z,2.33
2019-02-10T12:31:49.078Z,2.30
2019-02-10T12:34:36.688Z,2.00
2019-02-10T12:37:05.067Z,1.50
2019-02-10T12:39:33.432Z,1.90
2019-02-10T12:42:21.059Z,1.77
2019-02-10T12:44:49.423Z,1.67
2019-02-10T12:47:37.380Z,1.60
2019-02-10T12:50:45.677Z,1.63
2019-02-10T12:53:33.302Z,3.73
2019-02-10T12:56:01.671Z,5.33
2019-02-10T12:58:49.293Z,0.80
2019-02-10T13:01:17.665Z,2.00
2019-02-10T13:04:05.291Z,0.80
2019-02-10T13:06:33.652Z,0.70
2019-02-10T13:09:02.044Z,0.67
2019-02-10T13:11:50.086Z,0.70
2019-02-10T13:14:37.568Z,0.60
2019-02-10T13:17:05.945Z,1.03
2019-02-10T13:19:34.314Z,0.50
2019-02-10T13:22:02.705Z,0.73
2019-02-10T13:24:31.068Z,0.60
2019-02-10T13:27:18.709Z,1.13
2019-02-10T13:30:06.190Z,0.60
2019-02-10T13:32:53.812Z,0.60
2019-02-10T13:35:41.426Z,0.70
2019-02-10T13:38:29.141Z,2.47
2019-02-10T13:41:16.623Z,0.80
2019-02-10T13:46:19.473Z,0.60
2019-02-10T13:49:07.099Z,0.70
2019-02-10T13:51:54.718Z,0.60
2019-02-10T13:54:23.096Z,0.70
2019-02-10T13:59:38.908Z,0.60
2019-02-10T14:02:26.395Z,1.60
2019-02-10T14:04:54.773Z,0.80
2019-02-10T14:07:42.400Z,0.70
2019-02-10T14:10:50.679Z,0.80
2019-02-10T14:13:38.171Z,0.77
2019-02-10T14:16:25.651Z,1.37
2019-02-10T14:18:54.030Z,0.60
2019-02-10T14:26:43.744Z,1.70
2019-02-10T14:34:39.735Z,2.00
2019-02-10T14:37:08.107Z,1.40
2019-02-10T14:39:36.497Z,2.43
2019-02-10T14:42:04.869Z,0.70
2019-02-10T14:44:33.248Z,1.10
2019-02-10T14:47:01.613Z,1.90
2019-02-10T14:49:29.996Z,1.50
2019-02-10T14:51:58.366Z,3.70
2019-02-10T14:54:26.736Z,0.93
2019-02-10T14:57:14.447Z,1.27
2019-02-10T15:00:02.070Z,1.13
2019-02-10T15:02:49.552Z,3.70
2019-02-10T15:05:37.172Z,1.63
2019-02-10T15:08:24.784Z,1.57
2019-02-10T15:10:53.161Z,1.90
2019-02-10T15:13:21.523Z,1.70
2019-02-10T15:15:49.907Z,2.10
2019-02-10T15:18:37.392Z,1.53
2019-02-10T15:21:05.774Z,2.20
2019-02-10T15:23:53.391Z,2.37
2019-02-10T15:28:55.370Z,2.37
2019-02-10T15:31:23.750Z,3.00
2019-02-10T15:34:11.422Z,2.63
2019-02-10T15:36:39.793Z,3.17
2019-02-10T15:39:08.162Z,2.40
2019-02-10T15:41:55.653Z,2.60
2019-02-10T15:44:24.044Z,2.03
2019-02-10T15:47:11.543Z,2.37
2019-02-10T15:49:39.917Z,1.83
2019-02-10T15:52:27.407Z,1.37
2019-02-10T15:54:55.786Z,1.20
2019-02-10T15:57:43.399Z,1.57
2019-02-10T16:00:31.121Z,1.20
2019-02-10T16:03:18.600Z,1.30
2019-02-10T16:06:06.221Z,3.43
2019-02-10T16:11:22.025Z,1.87
2019-02-10T16:13:50.401Z,1.60
2019-02-10T16:18:52.679Z,1.43
2019-02-10T16:21:40.299Z,0.90
2019-02-10T16:26:56.109Z,0.83
2019-02-10T16:29:43.724Z,0.90
2019-02-10T16:32:31.352Z,0.80
2019-02-10T16:34:59.722Z,0.90
2019-02-10T16:37:47.342Z,0.90
2019-02-10T16:40:55.625Z,1.10
2019-02-10T16:48:45.841Z,1.00
2019-02-10T16:51:33.460Z,1.30
2019-02-10T16:54:01.830Z,1.00
2019-02-10T16:57:10.112Z,1.03
2019-02-10T16:59:58.220Z,0.83
2019-02-10T17:02:46.978Z,3.07
2019-02-10T17:08:02.768Z,0.90
2019-02-10T17:10:50.263Z,1.50
2019-02-10T17:13:18.628Z,1.10
2019-02-10T17:16:06.361Z,1.03
2019-02-10T17:18:34.724Z,1.43
2019-02-10T17:21:03.101Z,2.07
2019-02-10T17:26:18.908Z,1.77
2019-02-10T17:31:53.906Z,1.87
2019-02-10T17:34:41.611Z,2.17
2019-02-10T17:37:29.493Z,1.57
2019-02-10T17:40:17.123Z,3.20
2019-02-10T17:42:45.664Z,2.43
2019-02-10T17:45:33.462Z,2.10
2019-02-10T17:48:01.981Z,2.73
2019-02-10T17:53:37.138Z,1.63
2019-02-10T17:56:24.823Z,2.10
2019-02-10T18:02:00.211Z,1.33
2019-02-10T18:07:16.008Z,1.20
2019-02-10T18:10:03.493Z,2.10
2019-02-10T18:15:45.654Z,1.00
2019-02-10T18:21:08.902Z,0.83
2019-02-10T18:26:36.989Z,1.10
2019-02-10T18:29:24.914Z,0.83
2019-02-10T18:32:12.555Z,0.90
2019-02-10T18:35:00.197Z,0.83
2019-02-10T18:37:47.787Z,0.80
2019-02-10T18:40:35.393Z,1.40
2019-02-10T18:43:23.007Z,1.80
2019-02-10T18:49:18.935Z,1.40
2019-02-10T18:52:06.544Z,2.30
2019-02-10T18:54:54.228Z,2.03
2019-02-10T19:03:51.286Z,1.67
2019-02-10T19:06:38.778Z,2.50
2019-02-10T19:09:26.278Z,2.17
2019-02-10T19:12:13.760Z,1.70
2019-02-10T19:15:01.253Z,1.93
2019-02-10T19:20:44.127Z,2.20
2019-02-10T19:23:31.761Z,1.83
2019-02-10T19:26:38.595Z,1.00
2019-02-10T19:29:45.429Z,1.17
2019-02-10T19:32:33.003Z,2.17
2019-02-10T19:35:20.648Z,1.40
2019-02-10T19:38:08.141Z,2.80
2019-02-10T19:40:55.628Z,1.77
2019-02-10T19:43:43.311Z,3.60
2019-02-10T19:52:14.990Z,1.40
2019-02-10T19:55:02.637Z,1.27
2019-02-10T19:57:50.118Z,1.40
2019-02-10T20:00:37.615Z,1.17
2019-02-10T20:03:25.104Z,2.73
2019-02-10T20:06:12.597Z,6.13
2019-02-10T20:11:49.164Z,3.70
2019-02-10T20:14:36.667Z,5.47
2019-02-10T20:17:24.154Z,2.70
2019-02-10T20:20:11.648Z,2.60
2019-02-10T20:22:59.134Z,6.93
2019-02-10T20:26:05.886Z,1.80
2019-02-10T20:28:53.375Z,1.40
2019-02-10T20:31:40.871Z,3.20
2019-02-10T20:37:17.450Z,3.13
2019-02-10T20:40:04.946Z,4.80
2019-02-10T20:42:52.471Z,13.87
2019-02-10T20:45:59.235Z,7.60
2019-02-10T20:48:46.738Z,3.27
2019-02-10T20:51:34.471Z,3.37
2019-02-10T20:59:46.655Z,8.00
2019-02-10T21:05:13.260Z,2.27
2019-02-10T21:08:00.748Z,0.80
2019-02-10T21:10:48.245Z,0.80
2019-02-10T21:13:35.731Z,0.60
2019-02-10T21:16:42.481Z,0.70
2019-02-10T21:22:19.047Z,0.80
2019-02-10T21:25:06.528Z,0.67
2019-02-10T21:28:13.278Z,0.70
2019-02-10T21:31:00.770Z,0.70
2019-02-10T21:33:48.253Z,1.00
2019-02-10T21:39:14.975Z,1.00
2019-02-10T21:42:02.469Z,0.90
2019-02-10T21:47:39.041Z,1.13
2019-02-10T21:50:47.321Z,1.30
2019-02-10T21:53:15.691Z,1.70
2019-02-10T21:56:03.174Z,1.30
2019-02-10T21:58:31.644Z,2.67
2019-02-10T22:01:19.277Z,2.80
2019-02-10T22:03:47.641Z,3.50
2019-02-10T22:06:16.655Z,4.27
2019-02-10T22:08:46.104Z,5.63
2019-02-10T22:11:33.600Z,5.90
2019-02-10T22:14:21.227Z,7.40
2019-02-10T22:17:08.860Z,10.00
2019-02-10T22:19:37.249Z,10.13
2019-02-10T22:22:24.870Z,9.47
2019-02-10T22:27:40.763Z,13.67
2019-02-10T22:30:49.069Z,14.60
2019-02-10T22:33:17.449Z,20.50
2019-02-10T22:36:05.162Z,23.20
2019-02-10T22:38:33.787Z,27.30
2019-02-10T22:41:02.169Z,21.80
2019-02-10T22:46:05.234Z,29.73
2019-02-10T22:48:53.024Z,37.83
2019-02-10T22:51:21.396Z,30.83
2019-02-10T22:54:09.028Z,28.27
2019-02-10T22:56:37.416Z,32.23
2019-02-10T22:59:05.803Z,30.40
2019-02-10T23:01:34.262Z,24.13
2019-02-10T23:04:21.899Z,31.47
2019-02-10T23:07:09.529Z,26.50
2019-02-10T23:09:37.901Z,39.17
2019-02-10T23:12:06.275Z,36.63
2019-02-10T23:14:34.659Z,33.37
2019-02-10T23:17:03.098Z,23.93
2019-02-10T23:19:50.725Z,48.47
2019-02-10T23:22:38.210Z,33.60
2019-02-10T23:25:06.909Z,29.53
2019-02-10T23:27:35.284Z,25.53
2019-02-10T23:30:44.451Z,24.60
2019-02-10T23:35:46.766Z,25.17
2019-02-10T23:38:34.265Z,40.33
2019-02-10T23:43:50.082Z,26.43
2019-02-10T23:46:37.571Z,25.43
2019-02-10T23:49:05.950Z,26.53
2019-02-10T23:51:53.804Z,32.50
2019-02-10T23:54:22.181Z,28.10
2019-02-10T23:57:09.807Z,24.23
2019-02-10T23:59:57.525Z,20.23
